sensor_id;sensor_type;location;lat;lon;timestamp;temperature;humidity
11922;DHT22;6021;51.182;3.160;2022-12-29T00:01:10;10.70;99.90
11922;DHT22;6021;51.182;3.160;2022-12-29T00:03:38;10.70;99.90
11922;DHT22;6021;51.182;3.160;2022-12-29T00:06:07;10.80;99.90
11922;DHT22;6021;51.182;3.160;2022-12-29T00:08:35;10.70;99.90
11922;DHT22;6021;51.182;3.160;2022-12-29T00:11:08;10.80;99.90
11922;DHT22;6021;51.182;3.160;2022-12-29T00:13:37;10.60;99.90
11922;DHT22;6021;51.182;3.160;2022-12-29T00:16:23;10.70;99.90
11922;DHT22;6021;51.182;3.160;2022-12-29T00:18:52;10.60;99.90
11922;DHT22;6021;51.182;3.160;2022-12-29T00:21:22;10.70;99.90
11922;DHT22;6021;51.182;3.160;2022-12-29T00:24:20;10.60;99.90
11922;DHT22;6021;51.182;3.160;2022-12-29T00:29:51;10.30;99.90
11922;DHT22;6021;51.182;3.160;2022-12-29T00:32:37;10.30;99.90
11922;DHT22;6021;51.182;3.160;2022-12-29T00:35:36;10.30;99.90
11922;DHT22;6021;51.182;3.160;2022-12-29T00:38:05;10.60;99.90
11922;DHT22;6021;51.182;3.160;2022-12-29T00:40:52;10.20;99.90
11922;DHT22;6021;51.182;3.160;2022-12-29T00:43:38;10.00;99.90
11922;DHT22;6021;51.182;3.160;2022-12-29T00:46:24;10.10;99.90
11922;DHT22;6021;51.182;3.160;2022-12-29T00:48:53;10.20;99.90
11922;DHT22;6021;51.182;3.160;2022-12-29T00:51:39;10.10;99.90
11922;DHT22;6021;51.182;3.160;2022-12-29T00:54:07;10.20;99.90
11922;DHT22;6021;51.182;3.160;2022-12-29T00:56:36;10.30;99.90
11922;DHT22;6021;51.182;3.160;2022-12-29T00:59:06;10.40;99.90
11922;DHT22;6021;51.182;3.160;2022-12-29T01:04:29;10.40;99.90
11922;DHT22;6021;51.182;3.160;2022-12-29T01:06:58;10.50;99.90
11922;DHT22;6021;51.182;3.160;2022-12-29T01:09:26;10.50;99.90
11922;DHT22;6021;51.182;3.160;2022-12-29T01:12:12;10.90;99.90
11922;DHT22;6021;51.182;3.160;2022-12-29T01:14:41;10.40;99.90
11922;DHT22;6021;51.182;3.160;2022-12-29T01:17:09;10.50;99.90
11922;DHT22;6021;51.182;3.160;2022-12-29T01:19:38;10.40;99.90
11922;DHT22;6021;51.182;3.160;2022-12-29T01:22:06;10.30;99.90
11922;DHT22;6021;51.182;3.160;2022-12-29T01:24:35;10.60;99.90
11922;DHT22;6021;51.182;3.160;2022-12-29T01:27:03;10.00;99.90
11922;DHT22;6021;51.182;3.160;2022-12-29T01:29:31;10.00;99.90
11922;DHT22;6021;51.182;3.160;2022-12-29T01:32:00;9.90;99.90
11922;DHT22;6021;51.182;3.160;2022-12-29T01:34:28;10.20;99.90
11922;DHT22;6021;51.182;3.160;2022-12-29T01:36:56;10.10;99.90
11922;DHT22;6021;51.182;3.160;2022-12-29T01:39:25;9.90;99.90
11922;DHT22;6021;51.182;3.160;2022-12-29T01:41:53;9.80;99.90
11922;DHT22;6021;51.182;3.160;2022-12-29T01:47:23;9.70;99.90
11922;DHT22;6021;51.182;3.160;2022-12-29T01:49:46;9.70;99.90
11922;DHT22;6021;51.182;3.160;2022-12-29T01:52:15;9.70;99.90
11922;DHT22;6021;51.182;3.160;2022-12-29T01:54:46;9.80;99.90
11922;DHT22;6021;51.182;3.160;2022-12-29T01:57:17;9.80;99.90
11922;DHT22;6021;51.182;3.160;2022-12-29T01:59:56;9.80;99.90
11922;DHT22;6021;51.182;3.160;2022-12-29T02:02:20;10.00;99.90
11922;DHT22;6021;51.182;3.160;2022-12-29T02:04:48;9.80;99.90
11922;DHT22;6021;51.182;3.160;2022-12-29T02:07:19;9.70;99.90
11922;DHT22;6021;51.182;3.160;2022-12-29T02:09:49;10.10;99.90
11922;DHT22;6021;51.182;3.160;2022-12-29T02:12:20;10.00;99.90
11922;DHT22;6021;51.182;3.160;2022-12-29T02:14:51;9.90;99.90
11922;DHT22;6021;51.182;3.160;2022-12-29T02:20:33;9.90;99.90
11922;DHT22;6021;51.182;3.160;2022-12-29T02:28:53;9.90;99.90
11922;DHT22;6021;51.182;3.160;2022-12-29T02:36:47;9.80;99.90
11922;DHT22;6021;51.182;3.160;2022-12-29T02:42:03;9.90;99.90
11922;DHT22;6021;51.182;3.160;2022-12-29T02:44:55;9.60;99.90
11922;DHT22;6021;51.182;3.160;2022-12-29T02:47:48;9.50;99.90
11922;DHT22;6021;51.182;3.160;2022-12-29T02:52:44;9.50;99.90
11922;DHT22;6021;51.182;3.160;2022-12-29T02:55:11;9.40;99.90
11922;DHT22;6021;51.182;3.160;2022-12-29T02:57:39;9.40;99.90
11922;DHT22;6021;51.182;3.160;2022-12-29T03:00:16;9.40;99.90
11922;DHT22;6021;51.182;3.160;2022-12-29T03:03:32;9.40;99.90
11922;DHT22;6021;51.182;3.160;2022-12-29T03:08:23;9.50;99.90
11922;DHT22;6021;51.182;3.160;2022-12-29T03:11:08;9.40;99.90
11922;DHT22;6021;51.182;3.160;2022-12-29T03:13:47;9.30;99.90
11922;DHT22;6021;51.182;3.160;2022-12-29T03:16:32;9.20;99.90
11922;DHT22;6021;51.182;3.160;2022-12-29T03:19:16;9.40;99.90
11922;DHT22;6021;51.182;3.160;2022-12-29T03:24:38;9.30;99.90
11922;DHT22;6021;51.182;3.160;2022-12-29T03:27:08;9.30;99.90
11922;DHT22;6021;51.182;3.160;2022-12-29T03:29:43;9.40;99.90
11922;DHT22;6021;51.182;3.160;2022-12-29T03:32:13;9.50;99.90
11922;DHT22;6021;51.182;3.160;2022-12-29T03:34:41;9.40;99.90
11922;DHT22;6021;51.182;3.160;2022-12-29T03:37:13;9.50;99.90
11922;DHT22;6021;51.182;3.160;2022-12-29T03:39:41;9.30;99.90
11922;DHT22;6021;51.182;3.160;2022-12-29T03:42:16;9.50;99.90
11922;DHT22;6021;51.182;3.160;2022-12-29T03:44:46;9.60;99.90
11922;DHT22;6021;51.182;3.160;2022-12-29T03:47:15;9.40;99.90
11922;DHT22;6021;51.182;3.160;2022-12-29T03:49:45;9.40;99.90
11922;DHT22;6021;51.182;3.160;2022-12-29T03:52:14;9.80;99.90
11922;DHT22;6021;51.182;3.160;2022-12-29T03:54:43;9.60;99.90
11922;DHT22;6021;51.182;3.160;2022-12-29T03:57:11;9.70;99.90
11922;DHT22;6021;51.182;3.160;2022-12-29T03:59:40;9.70;99.90
11922;DHT22;6021;51.182;3.160;2022-12-29T04:02:08;9.50;99.90
11922;DHT22;6021;51.182;3.160;2022-12-29T04:04:36;9.60;99.90
11922;DHT22;6021;51.182;3.160;2022-12-29T04:07:05;9.50;99.90
11922;DHT22;6021;51.182;3.160;2022-12-29T04:09:33;9.50;99.90
11922;DHT22;6021;51.182;3.160;2022-12-29T04:12:02;9.80;99.90
11922;DHT22;6021;51.182;3.160;2022-12-29T04:14:30;9.50;99.90
11922;DHT22;6021;51.182;3.160;2022-12-29T04:16:58;9.80;99.90
11922;DHT22;6021;51.182;3.160;2022-12-29T04:19:27;9.70;99.90
11922;DHT22;6021;51.182;3.160;2022-12-29T04:21:55;9.60;99.90
11922;DHT22;6021;51.182;3.160;2022-12-29T04:24:23;9.60;99.90
11922;DHT22;6021;51.182;3.160;2022-12-29T04:26:52;9.60;99.90
11922;DHT22;6021;51.182;3.160;2022-12-29T04:29:20;9.70;99.90
11922;DHT22;6021;51.182;3.160;2022-12-29T04:31:49;9.40;99.90
11922;DHT22;6021;51.182;3.160;2022-12-29T04:34:17;9.70;99.90
11922;DHT22;6021;51.182;3.160;2022-12-29T04:36:46;9.40;99.90
11922;DHT22;6021;51.182;3.160;2022-12-29T04:39:14;9.50;99.90
11922;DHT22;6021;51.182;3.160;2022-12-29T04:41:44;9.40;99.90
11922;DHT22;6021;51.182;3.160;2022-12-29T04:44:13;9.50;99.90
11922;DHT22;6021;51.182;3.160;2022-12-29T04:46:42;9.40;99.90
11922;DHT22;6021;51.182;3.160;2022-12-29T04:49:10;9.40;99.90
11922;DHT22;6021;51.182;3.160;2022-12-29T04:51:38;9.50;99.90
11922;DHT22;6021;51.182;3.160;2022-12-29T04:54:07;9.60;99.90
11922;DHT22;6021;51.182;3.160;2022-12-29T04:59:06;9.60;99.90
11922;DHT22;6021;51.182;3.160;2022-12-29T05:01:34;9.60;99.90
11922;DHT22;6021;51.182;3.160;2022-12-29T05:04:03;9.60;99.90
11922;DHT22;6021;51.182;3.160;2022-12-29T05:06:31;9.40;99.90
11922;DHT22;6021;51.182;3.160;2022-12-29T05:08:59;9.50;99.90
11922;DHT22;6021;51.182;3.160;2022-12-29T05:11:28;9.50;99.90
11922;DHT22;6021;51.182;3.160;2022-12-29T05:13:56;10.00;99.90
11922;DHT22;6021;51.182;3.160;2022-12-29T05:16:25;9.70;99.90
11922;DHT22;6021;51.182;3.160;2022-12-29T05:18:54;9.60;99.90
11922;DHT22;6021;51.182;3.160;2022-12-29T05:21:22;9.80;99.90
11922;DHT22;6021;51.182;3.160;2022-12-29T05:23:51;9.80;99.90
11922;DHT22;6021;51.182;3.160;2022-12-29T05:26:19;9.70;99.90
11922;DHT22;6021;51.182;3.160;2022-12-29T05:28:48;9.60;99.90
11922;DHT22;6021;51.182;3.160;2022-12-29T05:31:16;9.50;99.90
11922;DHT22;6021;51.182;3.160;2022-12-29T05:33:44;9.50;99.90
11922;DHT22;6021;51.182;3.160;2022-12-29T05:36:13;9.40;99.90
11922;DHT22;6021;51.182;3.160;2022-12-29T05:38:42;9.60;99.90
11922;DHT22;6021;51.182;3.160;2022-12-29T05:41:10;9.50;99.90
11922;DHT22;6021;51.182;3.160;2022-12-29T05:43:39;9.60;99.90
11922;DHT22;6021;51.182;3.160;2022-12-29T05:46:07;9.60;99.90
11922;DHT22;6021;51.182;3.160;2022-12-29T05:48:36;9.60;99.90
11922;DHT22;6021;51.182;3.160;2022-12-29T05:51:04;9.60;99.90
11922;DHT22;6021;51.182;3.160;2022-12-29T05:53:33;9.40;99.90
11922;DHT22;6021;51.182;3.160;2022-12-29T05:56:01;9.50;99.90
11922;DHT22;6021;51.182;3.160;2022-12-29T05:58:30;9.60;99.90
11922;DHT22;6021;51.182;3.160;2022-12-29T06:00:58;9.80;99.90
11922;DHT22;6021;51.182;3.160;2022-12-29T06:03:26;9.60;99.90
11922;DHT22;6021;51.182;3.160;2022-12-29T06:05:55;9.60;99.90
11922;DHT22;6021;51.182;3.160;2022-12-29T06:08:23;9.60;99.90
11922;DHT22;6021;51.182;3.160;2022-12-29T06:10:52;9.40;99.90
11922;DHT22;6021;51.182;3.160;2022-12-29T06:13:20;9.50;99.90
11922;DHT22;6021;51.182;3.160;2022-12-29T06:15:50;9.30;99.90
11922;DHT22;6021;51.182;3.160;2022-12-29T06:18:18;9.30;99.90
11922;DHT22;6021;51.182;3.160;2022-12-29T06:20:46;9.50;99.90
11922;DHT22;6021;51.182;3.160;2022-12-29T06:23:15;9.60;99.90
11922;DHT22;6021;51.182;3.160;2022-12-29T06:25:47;9.80;99.90
11922;DHT22;6021;51.182;3.160;2022-12-29T06:28:16;9.60;99.90
11922;DHT22;6021;51.182;3.160;2022-12-29T06:30:45;9.50;99.90
11922;DHT22;6021;51.182;3.160;2022-12-29T06:33:14;9.50;99.90
11922;DHT22;6021;51.182;3.160;2022-12-29T06:35:43;9.30;99.90
11922;DHT22;6021;51.182;3.160;2022-12-29T06:38:13;9.40;99.90
11922;DHT22;6021;51.182;3.160;2022-12-29T06:40:42;9.40;99.90
11922;DHT22;6021;51.182;3.160;2022-12-29T06:43:12;9.50;99.90
11922;DHT22;6021;51.182;3.160;2022-12-29T06:45:41;9.30;99.90
11922;DHT22;6021;51.182;3.160;2022-12-29T06:48:10;9.40;99.90
11922;DHT22;6021;51.182;3.160;2022-12-29T06:50:38;9.40;99.90
11922;DHT22;6021;51.182;3.160;2022-12-29T06:53:07;9.50;99.90
11922;DHT22;6021;51.182;3.160;2022-12-29T06:55:36;9.60;99.90
11922;DHT22;6021;51.182;3.160;2022-12-29T06:58:04;9.50;99.90
11922;DHT22;6021;51.182;3.160;2022-12-29T07:00:33;9.40;99.90
11922;DHT22;6021;51.182;3.160;2022-12-29T07:03:02;9.50;99.90
11922;DHT22;6021;51.182;3.160;2022-12-29T07:05:30;9.60;99.90
11922;DHT22;6021;51.182;3.160;2022-12-29T07:08:00;9.90;99.90
11922;DHT22;6021;51.182;3.160;2022-12-29T07:10:28;9.50;99.90
11922;DHT22;6021;51.182;3.160;2022-12-29T07:12:56;9.70;99.90
11922;DHT22;6021;51.182;3.160;2022-12-29T07:15:25;9.80;99.90
11922;DHT22;6021;51.182;3.160;2022-12-29T07:17:53;10.10;99.90
11922;DHT22;6021;51.182;3.160;2022-12-29T07:20:22;9.80;99.90
11922;DHT22;6021;51.182;3.160;2022-12-29T07:22:50;9.80;99.90
11922;DHT22;6021;51.182;3.160;2022-12-29T07:25:18;9.80;99.90
11922;DHT22;6021;51.182;3.160;2022-12-29T07:27:47;9.90;99.80
11922;DHT22;6021;51.182;3.160;2022-12-29T07:30:16;9.70;99.90
11922;DHT22;6021;51.182;3.160;2022-12-29T07:32:44;9.80;99.90
11922;DHT22;6021;51.182;3.160;2022-12-29T07:35:13;9.80;99.90
11922;DHT22;6021;51.182;3.160;2022-12-29T07:37:41;9.70;99.90
11922;DHT22;6021;51.182;3.160;2022-12-29T07:40:10;9.50;99.90
11922;DHT22;6021;51.182;3.160;2022-12-29T07:42:38;9.50;99.90
11922;DHT22;6021;51.182;3.160;2022-12-29T07:45:07;9.40;99.90
11922;DHT22;6021;51.182;3.160;2022-12-29T07:47:36;9.40;99.90
11922;DHT22;6021;51.182;3.160;2022-12-29T07:50:05;9.40;99.90
11922;DHT22;6021;51.182;3.160;2022-12-29T07:52:34;9.50;99.90
11922;DHT22;6021;51.182;3.160;2022-12-29T07:55:02;9.20;99.90
11922;DHT22;6021;51.182;3.160;2022-12-29T07:57:30;9.40;99.90
11922;DHT22;6021;51.182;3.160;2022-12-29T07:59:59;9.30;99.90
11922;DHT22;6021;51.182;3.160;2022-12-29T08:02:27;9.10;99.90
11922;DHT22;6021;51.182;3.160;2022-12-29T08:04:56;9.10;99.90
11922;DHT22;6021;51.182;3.160;2022-12-29T08:07:25;9.10;99.90
11922;DHT22;6021;51.182;3.160;2022-12-29T08:09:53;9.10;99.90
11922;DHT22;6021;51.182;3.160;2022-12-29T08:12:22;9.20;99.90
11922;DHT22;6021;51.182;3.160;2022-12-29T08:14:50;9.00;99.90
11922;DHT22;6021;51.182;3.160;2022-12-29T08:17:19;9.10;99.90
11922;DHT22;6021;51.182;3.160;2022-12-29T08:19:47;9.10;99.90
11922;DHT22;6021;51.182;3.160;2022-12-29T08:22:16;9.20;99.90
11922;DHT22;6021;51.182;3.160;2022-12-29T08:24:44;9.20;99.90
11922;DHT22;6021;51.182;3.160;2022-12-29T08:27:13;9.10;99.90
11922;DHT22;6021;51.182;3.160;2022-12-29T08:29:41;9.10;99.90
11922;DHT22;6021;51.182;3.160;2022-12-29T08:32:10;9.10;99.90
11922;DHT22;6021;51.182;3.160;2022-12-29T08:34:38;9.10;99.90
11922;DHT22;6021;51.182;3.160;2022-12-29T08:37:07;9.20;99.90
11922;DHT22;6021;51.182;3.160;2022-12-29T08:39:35;9.60;99.90
11922;DHT22;6021;51.182;3.160;2022-12-29T08:42:03;9.20;99.90
11922;DHT22;6021;51.182;3.160;2022-12-29T08:44:32;9.20;99.90
11922;DHT22;6021;51.182;3.160;2022-12-29T08:47:00;9.20;99.90
11922;DHT22;6021;51.182;3.160;2022-12-29T08:49:29;9.10;99.90
11922;DHT22;6021;51.182;3.160;2022-12-29T08:51:57;9.10;99.90
11922;DHT22;6021;51.182;3.160;2022-12-29T08:54:26;9.30;99.90
11922;DHT22;6021;51.182;3.160;2022-12-29T08:56:54;9.20;99.90
11922;DHT22;6021;51.182;3.160;2022-12-29T08:59:23;9.50;99.90
11922;DHT22;6021;51.182;3.160;2022-12-29T09:01:51;9.30;99.90
11922;DHT22;6021;51.182;3.160;2022-12-29T09:04:19;9.40;99.90
11922;DHT22;6021;51.182;3.160;2022-12-29T09:06:48;9.40;99.90
11922;DHT22;6021;51.182;3.160;2022-12-29T09:09:16;9.20;99.90
11922;DHT22;6021;51.182;3.160;2022-12-29T09:11:45;9.50;99.90
11922;DHT22;6021;51.182;3.160;2022-12-29T09:14:14;9.20;99.90
11922;DHT22;6021;51.182;3.160;2022-12-29T09:16:42;9.20;99.90
11922;DHT22;6021;51.182;3.160;2022-12-29T09:19:28;9.20;99.90
11922;DHT22;6021;51.182;3.160;2022-12-29T09:21:56;9.40;99.90
11922;DHT22;6021;51.182;3.160;2022-12-29T09:24:25;9.50;99.90
11922;DHT22;6021;51.182;3.160;2022-12-29T09:26:53;9.70;99.90
11922;DHT22;6021;51.182;3.160;2022-12-29T09:29:21;9.70;99.90
11922;DHT22;6021;51.182;3.160;2022-12-29T09:31:50;9.70;99.90
11922;DHT22;6021;51.182;3.160;2022-12-29T09:34:20;9.90;99.90
11922;DHT22;6021;51.182;3.160;2022-12-29T09:36:49;10.10;99.90
11922;DHT22;6021;51.182;3.160;2022-12-29T09:39:17;10.10;99.90
11922;DHT22;6021;51.182;3.160;2022-12-29T09:44:45;10.00;99.90
11922;DHT22;6021;51.182;3.160;2022-12-29T09:47:07;10.10;99.90
11922;DHT22;6021;51.182;3.160;2022-12-29T09:49:42;9.70;99.90
11922;DHT22;6021;51.182;3.160;2022-12-29T09:52:14;10.10;99.90
11922;DHT22;6021;51.182;3.160;2022-12-29T09:57:57;9.80;99.90
11922;DHT22;6021;51.182;3.160;2022-12-29T10:00:55;9.80;99.90
11922;DHT22;6021;51.182;3.160;2022-12-29T10:03:28;9.90;99.90
11922;DHT22;6021;51.182;3.160;2022-12-29T10:06:06;10.10;99.90
11922;DHT22;6021;51.182;3.160;2022-12-29T10:08:42;10.10;99.90
11922;DHT22;6021;51.182;3.160;2022-12-29T10:16:32;10.20;99.90
11922;DHT22;6021;51.182;3.160;2022-12-29T10:24:28;10.70;99.90
11922;DHT22;6021;51.182;3.160;2022-12-29T10:26:59;10.80;99.90
11922;DHT22;6021;51.182;3.160;2022-12-29T10:29:36;10.60;99.90
11922;DHT22;6021;51.182;3.160;2022-12-29T10:32:23;10.80;99.90
11922;DHT22;6021;51.182;3.160;2022-12-29T10:34:54;10.60;99.90
11922;DHT22;6021;51.182;3.160;2022-12-29T10:39:56;10.40;99.90
11922;DHT22;6021;51.182;3.160;2022-12-29T10:42:39;10.50;99.90
11922;DHT22;6021;51.182;3.160;2022-12-29T10:45:18;10.20;99.90
11922;DHT22;6021;51.182;3.160;2022-12-29T10:47:56;10.10;99.90
11922;DHT22;6021;51.182;3.160;2022-12-29T10:50:20;10.20;99.90
11922;DHT22;6021;51.182;3.160;2022-12-29T10:52:49;10.00;99.90
11922;DHT22;6021;51.182;3.160;2022-12-29T10:55:22;10.00;99.90
11922;DHT22;6021;51.182;3.160;2022-12-29T10:57:51;10.00;99.90
11922;DHT22;6021;51.182;3.160;2022-12-29T11:00:21;10.00;99.90
11922;DHT22;6021;51.182;3.160;2022-12-29T11:08:17;10.00;99.90
11922;DHT22;6021;51.182;3.160;2022-12-29T11:10:44;10.00;99.90
11922;DHT22;6021;51.182;3.160;2022-12-29T11:15:49;10.20;99.90
11922;DHT22;6021;51.182;3.160;2022-12-29T11:20:55;9.70;99.90
11922;DHT22;6021;51.182;3.160;2022-12-29T11:23:37;9.70;99.90
11922;DHT22;6021;51.182;3.160;2022-12-29T11:26:19;9.70;99.90
11922;DHT22;6021;51.182;3.160;2022-12-29T11:31:47;9.60;99.90
11922;DHT22;6021;51.182;3.160;2022-12-29T11:34:19;9.70;99.90
11922;DHT22;6021;51.182;3.160;2022-12-29T11:36:49;9.60;99.90
11922;DHT22;6021;51.182;3.160;2022-12-29T11:42:20;9.70;99.90
11922;DHT22;6021;51.182;3.160;2022-12-29T11:44:49;9.70;99.90
11922;DHT22;6021;51.182;3.160;2022-12-29T11:47:32;9.60;99.90
11922;DHT22;6021;51.182;3.160;2022-12-29T11:49:59;9.70;99.90
11922;DHT22;6021;51.182;3.160;2022-12-29T11:52:31;9.60;99.90
11922;DHT22;6021;51.182;3.160;2022-12-29T11:55:01;9.70;99.90
11922;DHT22;6021;51.182;3.160;2022-12-29T11:57:32;9.70;99.90
11922;DHT22;6021;51.182;3.160;2022-12-29T12:00:06;9.90;99.90
11922;DHT22;6021;51.182;3.160;2022-12-29T12:02:53;10.00;99.90
11922;DHT22;6021;51.182;3.160;2022-12-29T12:05:26;10.10;99.90
11922;DHT22;6021;51.182;3.160;2022-12-29T12:08:01;10.10;99.90
11922;DHT22;6021;51.182;3.160;2022-12-29T12:10:35;10.10;99.90
11922;DHT22;6021;51.182;3.160;2022-12-29T12:13:23;10.00;99.90
11922;DHT22;6021;51.182;3.160;2022-12-29T12:16:15;10.10;99.90
11922;DHT22;6021;51.182;3.160;2022-12-29T12:18:49;10.00;99.90
11922;DHT22;6021;51.182;3.160;2022-12-29T12:21:40;10.10;99.90
11922;DHT22;6021;51.182;3.160;2022-12-29T12:29:56;10.00;99.90
11922;DHT22;6021;51.182;3.160;2022-12-29T12:32:35;9.80;99.90
11922;DHT22;6021;51.182;3.160;2022-12-29T12:35:00;9.70;99.90
11922;DHT22;6021;51.182;3.160;2022-12-29T12:37:58;9.80;99.90
11922;DHT22;6021;51.182;3.160;2022-12-29T12:46:30;9.70;99.90
11922;DHT22;6021;51.182;3.160;2022-12-29T12:49:29;9.70;99.90
11922;DHT22;6021;51.182;3.160;2022-12-29T12:52:06;9.70;99.90
11922;DHT22;6021;51.182;3.160;2022-12-29T12:57:35;9.90;99.90
11922;DHT22;6021;51.182;3.160;2022-12-29T13:00:08;9.50;99.90
11922;DHT22;6021;51.182;3.160;2022-12-29T13:08:37;9.40;99.90
11922;DHT22;6021;51.182;3.160;2022-12-29T13:13:46;9.50;99.90
11922;DHT22;6021;51.182;3.160;2022-12-29T13:19:20;9.50;99.90
11922;DHT22;6021;51.182;3.160;2022-12-29T13:24:12;9.50;99.90
11922;DHT22;6021;51.182;3.160;2022-12-29T13:26:43;9.40;99.90
11922;DHT22;6021;51.182;3.160;2022-12-29T13:37:34;9.20;99.90
11922;DHT22;6021;51.182;3.160;2022-12-29T13:40:13;9.20;99.90
11922;DHT22;6021;51.182;3.160;2022-12-29T13:42:41;9.20;99.90
11922;DHT22;6021;51.182;3.160;2022-12-29T13:45:23;9.20;99.90
11922;DHT22;6021;51.182;3.160;2022-12-29T13:47:55;9.00;99.90
11922;DHT22;6021;51.182;3.160;2022-12-29T13:50:27;9.00;99.90
11922;DHT22;6021;51.182;3.160;2022-12-29T13:55:35;9.20;99.90
11922;DHT22;6021;51.182;3.160;2022-12-29T13:58:47;8.80;99.90
11922;DHT22;6021;51.182;3.160;2022-12-29T14:00:57;8.70;99.90
11922;DHT22;6021;51.182;3.160;2022-12-29T14:06:10;8.60;99.90
11922;DHT22;6021;51.182;3.160;2022-12-29T14:08:34;8.70;99.90
11922;DHT22;6021;51.182;3.160;2022-12-29T14:11:12;8.80;99.90
11922;DHT22;6021;51.182;3.160;2022-12-29T14:13:43;8.60;99.90
11922;DHT22;6021;51.182;3.160;2022-12-29T14:16:33;8.70;99.90
11922;DHT22;6021;51.182;3.160;2022-12-29T14:19:11;8.50;99.90
11922;DHT22;6021;51.182;3.160;2022-12-29T14:21:40;8.50;99.90
11922;DHT22;6021;51.182;3.160;2022-12-29T14:29:44;8.40;99.90
11922;DHT22;6021;51.182;3.160;2022-12-29T14:35:00;8.20;99.90
11922;DHT22;6021;51.182;3.160;2022-12-29T14:37:34;8.20;99.90
11922;DHT22;6021;51.182;3.160;2022-12-29T14:40:17;8.30;99.90
11922;DHT22;6021;51.182;3.160;2022-12-29T14:42:47;8.30;99.90
11922;DHT22;6021;51.182;3.160;2022-12-29T14:47:49;8.10;99.90
11922;DHT22;6021;51.182;3.160;2022-12-29T14:50:23;8.20;99.90
11922;DHT22;6021;51.182;3.160;2022-12-29T14:52:54;8.20;99.90
11922;DHT22;6021;51.182;3.160;2022-12-29T14:55:44;8.30;99.90
11922;DHT22;6021;51.182;3.160;2022-12-29T15:00:49;8.10;99.90
11922;DHT22;6021;51.182;3.160;2022-12-29T15:03:23;8.20;99.90
11922;DHT22;6021;51.182;3.160;2022-12-29T15:06:08;8.10;99.90
11922;DHT22;6021;51.182;3.160;2022-12-29T15:08:59;8.20;99.90
11922;DHT22;6021;51.182;3.160;2022-12-29T15:11:47;8.20;99.90
11922;DHT22;6021;51.182;3.160;2022-12-29T15:14:32;8.40;99.90
11922;DHT22;6021;51.182;3.160;2022-12-29T15:16:56;8.30;99.90
11922;DHT22;6021;51.182;3.160;2022-12-29T15:19:26;8.30;99.90
11922;DHT22;6021;51.182;3.160;2022-12-29T15:21:55;8.10;99.90
11922;DHT22;6021;51.182;3.160;2022-12-29T15:24:25;8.00;99.90
11922;DHT22;6021;51.182;3.160;2022-12-29T15:26:54;8.20;99.90
11922;DHT22;6021;51.182;3.160;2022-12-29T15:29:37;8.00;99.90
11922;DHT22;6021;51.182;3.160;2022-12-29T15:32:25;8.00;99.90
11922;DHT22;6021;51.182;3.160;2022-12-29T15:34:52;7.90;99.90
11922;DHT22;6021;51.182;3.160;2022-12-29T15:39:55;7.80;99.90
11922;DHT22;6021;51.182;3.160;2022-12-29T15:42:47;7.50;99.90
11922;DHT22;6021;51.182;3.160;2022-12-29T15:45:23;7.50;99.90
11922;DHT22;6021;51.182;3.160;2022-12-29T15:47:52;7.70;99.90
11922;DHT22;6021;51.182;3.160;2022-12-29T15:50:31;7.60;99.90
11922;DHT22;6021;51.182;3.160;2022-12-29T15:53:00;7.50;99.90
11922;DHT22;6021;51.182;3.160;2022-12-29T15:55:38;7.60;99.90
11922;DHT22;6021;51.182;3.160;2022-12-29T15:58:19;7.60;99.90
11922;DHT22;6021;51.182;3.160;2022-12-29T16:00:50;7.60;99.90
11922;DHT22;6021;51.182;3.160;2022-12-29T16:03:22;7.60;99.90
11922;DHT22;6021;51.182;3.160;2022-12-29T16:05:58;7.50;99.90
11922;DHT22;6021;51.182;3.160;2022-12-29T16:08:36;7.60;99.90
11922;DHT22;6021;51.182;3.160;2022-12-29T16:13:53;7.40;99.90
11922;DHT22;6021;51.182;3.160;2022-12-29T16:16:31;7.20;99.90
11922;DHT22;6021;51.182;3.160;2022-12-29T16:19:03;7.30;99.90
11922;DHT22;6021;51.182;3.160;2022-12-29T16:21:34;7.40;99.90
11922;DHT22;6021;51.182;3.160;2022-12-29T16:24:07;7.50;99.90
11922;DHT22;6021;51.182;3.160;2022-12-29T16:26:36;7.20;99.90
11922;DHT22;6021;51.182;3.160;2022-12-29T16:29:06;7.30;99.90
11922;DHT22;6021;51.182;3.160;2022-12-29T16:31:48;7.40;99.90
11922;DHT22;6021;51.182;3.160;2022-12-29T16:34:22;7.20;99.90
11922;DHT22;6021;51.182;3.160;2022-12-29T16:42:32;7.30;99.90
11922;DHT22;6021;51.182;3.160;2022-12-29T16:44:31;7.30;99.90
11922;DHT22;6021;51.182;3.160;2022-12-29T16:49:47;7.10;99.90
11922;DHT22;6021;51.182;3.160;2022-12-29T16:52:24;7.10;99.90
11922;DHT22;6021;51.182;3.160;2022-12-29T16:54:54;7.20;99.90
11922;DHT22;6021;51.182;3.160;2022-12-29T16:57:31;7.10;99.90
11922;DHT22;6021;51.182;3.160;2022-12-29T16:59:59;7.30;99.90
11922;DHT22;6021;51.182;3.160;2022-12-29T17:02:29;7.20;99.90
11922;DHT22;6021;51.182;3.160;2022-12-29T17:04:59;7.30;99.90
11922;DHT22;6021;51.182;3.160;2022-12-29T17:07:28;7.50;99.90
11922;DHT22;6021;51.182;3.160;2022-12-29T17:09:56;7.70;99.90
11922;DHT22;6021;51.182;3.160;2022-12-29T17:12:27;7.50;99.90
11922;DHT22;6021;51.182;3.160;2022-12-29T17:14:59;7.40;99.90
11922;DHT22;6021;51.182;3.160;2022-12-29T17:17:34;7.40;99.90
11922;DHT22;6021;51.182;3.160;2022-12-29T17:20:17;7.20;99.90
11922;DHT22;6021;51.182;3.160;2022-12-29T17:22:46;7.30;99.90
11922;DHT22;6021;51.182;3.160;2022-12-29T17:25:17;7.40;99.90
11922;DHT22;6021;51.182;3.160;2022-12-29T17:27:53;7.40;99.90
11922;DHT22;6021;51.182;3.160;2022-12-29T17:30:21;7.60;99.90
11922;DHT22;6021;51.182;3.160;2022-12-29T17:32:52;7.40;99.90
11922;DHT22;6021;51.182;3.160;2022-12-29T17:35:21;7.40;99.90
11922;DHT22;6021;51.182;3.160;2022-12-29T17:37:50;7.20;99.90
11922;DHT22;6021;51.182;3.160;2022-12-29T17:42:52;7.40;99.90
11922;DHT22;6021;51.182;3.160;2022-12-29T17:45:27;7.70;99.90
11922;DHT22;6021;51.182;3.160;2022-12-29T17:47:56;7.70;99.90
11922;DHT22;6021;51.182;3.160;2022-12-29T17:50:27;7.70;99.90
11922;DHT22;6021;51.182;3.160;2022-12-29T17:52:59;7.80;99.90
11922;DHT22;6021;51.182;3.160;2022-12-29T17:55:28;7.60;99.90
11922;DHT22;6021;51.182;3.160;2022-12-29T17:57:57;7.70;99.90
11922;DHT22;6021;51.182;3.160;2022-12-29T18:00:27;8.00;99.90
11922;DHT22;6021;51.182;3.160;2022-12-29T18:02:57;8.00;99.90
11922;DHT22;6021;51.182;3.160;2022-12-29T18:05:27;7.90;99.90
11922;DHT22;6021;51.182;3.160;2022-12-29T18:07:57;7.80;99.90
11922;DHT22;6021;51.182;3.160;2022-12-29T18:10:28;7.80;99.90
11922;DHT22;6021;51.182;3.160;2022-12-29T18:13:01;7.70;99.90
11922;DHT22;6021;51.182;3.160;2022-12-29T18:15:32;7.80;99.90
11922;DHT22;6021;51.182;3.160;2022-12-29T18:18:12;7.80;99.90
11922;DHT22;6021;51.182;3.160;2022-12-29T18:20:42;7.90;99.90
11922;DHT22;6021;51.182;3.160;2022-12-29T18:23:25;7.90;99.90
11922;DHT22;6021;51.182;3.160;2022-12-29T18:26:10;7.50;99.90
11922;DHT22;6021;51.182;3.160;2022-12-29T18:28:34;7.70;99.90
11922;DHT22;6021;51.182;3.160;2022-12-29T18:31:02;7.60;99.90
11922;DHT22;6021;51.182;3.160;2022-12-29T18:33:30;7.40;99.90
11922;DHT22;6021;51.182;3.160;2022-12-29T18:36:01;7.40;99.90
11922;DHT22;6021;51.182;3.160;2022-12-29T18:38:30;7.40;99.90
11922;DHT22;6021;51.182;3.160;2022-12-29T18:40:59;7.40;99.90
11922;DHT22;6021;51.182;3.160;2022-12-29T18:43:27;7.50;99.90
11922;DHT22;6021;51.182;3.160;2022-12-29T18:45:57;7.30;99.90
11922;DHT22;6021;51.182;3.160;2022-12-29T18:48:26;7.50;99.90
11922;DHT22;6021;51.182;3.160;2022-12-29T18:50:54;7.40;99.90
11922;DHT22;6021;51.182;3.160;2022-12-29T18:53:24;7.80;99.90